Time;durP1;ratioP1;P1;durP2;ratioP2;P2;SDS_P1;SDS_P2;PMS_P1;PMS_P2;Temp;Humidity;BMP_temperature;BMP_pressure;BME280_temperature;BME280_humidity;BME280_pressure;Samples;Min_cycle;Max_cycle;Signal;HPM_P1;HPM_P2
2021/07/16 00:02:13;;;;;;;3.42;0.82;;;17.60;99.90;;;;;;4973021;28;20059;-80
2021/07/16 00:04:40;;;;;;;1.73;0.88;;;17.60;99.90;;;;;;4980583;28;20148;-79
2021/07/16 00:07:07;;;;;;;2.25;0.95;;;17.50;99.90;;;;;;4979589;28;20057;-79
2021/07/16 00:09:34;;;;;;;2.55;0.90;;;17.50;99.90;;;;;;4980450;28;20049;-80
2021/07/16 00:12:01;;;;;;;1.73;0.90;;;17.40;99.90;;;;;;4980211;28;20069;-80
2021/07/16 00:14:29;;;;;;;1.90;0.90;;;17.40;99.90;;;;;;4981888;28;20407;-80
2021/07/16 00:16:55;;;;;;;5.60;0.85;;;17.40;99.90;;;;;;4983982;28;20414;-80
2021/07/16 00:19:24;;;;;;;2.65;1.00;;;17.40;99.90;;;;;;4981418;28;20050;-79
2021/07/16 00:21:51;;;;;;;2.00;0.90;;;17.40;99.90;;;;;;4980591;28;20503;-80
2021/07/16 00:24:18;;;;;;;1.63;0.80;;;17.40;99.90;;;;;;4981955;28;20082;-80
2021/07/16 00:26:47;;;;;;;1.80;0.82;;;17.40;99.90;;;;;;4983370;28;20050;-79
2021/07/16 00:29:14;;;;;;;2.60;1.00;;;17.40;99.90;;;;;;4982241;28;20054;-79
2021/07/16 00:31:41;;;;;;;2.08;0.93;;;17.40;99.90;;;;;;4980445;28;20053;-79
2021/07/16 00:34:08;;;;;;;2.22;0.82;;;17.40;99.90;;;;;;4980966;28;20130;-80
2021/07/16 00:36:36;;;;;;;2.17;0.85;;;17.40;99.90;;;;;;4981931;28;20097;-79
2021/07/16 00:39:04;;;;;;;2.55;0.90;;;17.50;99.90;;;;;;4980134;28;20568;-80
2021/07/16 00:41:31;;;;;;;3.03;0.90;;;17.50;99.90;;;;;;4976851;28;20066;-79
2021/07/16 00:43:58;;;;;;;3.60;1.08;;;17.50;99.90;;;;;;4943334;28;1121133;-79
2021/07/16 00:46:25;;;;;;;3.53;1.08;;;17.40;99.90;;;;;;4986104;28;20133;-80
2021/07/16 00:48:52;;;;;;;1.75;1.00;;;17.40;99.90;;;;;;4988432;28;20060;-80
2021/07/16 00:51:19;;;;;;;1.75;0.90;;;17.30;99.90;;;;;;4986233;28;20480;-79
2021/07/16 00:53:48;;;;;;;2.20;0.80;;;17.30;99.90;;;;;;4985090;28;20047;-80
2021/07/16 00:56:15;;;;;;;3.00;1.00;;;17.20;99.90;;;;;;4989824;28;20475;-80
2021/07/16 00:58:42;;;;;;;1.67;0.90;;;17.20;99.90;;;;;;4985007;28;20134;-80
2021/07/16 01:01:09;;;;;;;3.50;0.90;;;17.20;99.90;;;;;;4989648;28;20050;-80
2021/07/16 01:03:37;;;;;;;2.03;0.80;;;17.10;99.90;;;;;;4984957;28;20045;-80
2021/07/16 01:06:04;;;;;;;2.60;0.80;;;17.10;99.90;;;;;;4985908;28;20051;-79
2021/07/16 01:08:32;;;;;;;3.20;1.00;;;17.00;99.90;;;;;;4980745;28;20419;-80
2021/07/16 01:11:00;;;;;;;2.38;1.10;;;17.00;99.90;;;;;;4987441;28;20050;-80
2021/07/16 01:13:27;;;;;;;3.08;0.98;;;17.00;99.90;;;;;;4992514;28;20043;-80
2021/07/16 01:15:55;;;;;;;2.50;1.20;;;17.00;99.90;;;;;;4984448;28;20046;-79
2021/07/16 01:18:24;;;;;;;3.13;1.40;;;17.00;99.90;;;;;;4987078;28;20139;-80
2021/07/16 01:20:52;;;;;;;2.72;1.17;;;17.00;99.90;;;;;;4991650;28;20125;-80
2021/07/16 01:23:23;;;;;;;2.75;1.30;;;16.90;99.90;;;;;;4993935;28;20125;-79
2021/07/16 01:25:51;;;;;;;2.78;1.17;;;16.90;99.90;;;;;;4983717;28;20046;-79
2021/07/16 01:28:18;;;;;;;3.10;1.30;;;16.90;99.90;;;;;;4987084;28;20410;-80
2021/07/16 01:30:47;;;;;;;4.97;1.75;;;16.90;99.90;;;;;;4982613;28;20081;-80
2021/07/16 01:33:14;;;;;;;4.75;1.30;;;16.90;99.90;;;;;;4985704;28;20047;-80
2021/07/16 01:35:41;;;;;;;3.03;1.20;;;16.80;99.90;;;;;;4988695;28;20133;-80
2021/07/16 01:38:09;;;;;;;4.15;1.65;;;16.80;99.90;;;;;;4987978;28;20145;-80
2021/07/16 01:40:39;;;;;;;4.35;1.50;;;16.80;99.90;;;;;;4984207;28;20131;-80
2021/07/16 01:43:09;;;;;;;4.75;1.65;;;16.70;99.90;;;;;;4983817;28;20138;-80
2021/07/16 01:45:39;;;;;;;3.67;1.48;;;16.70;99.90;;;;;;4991432;28;20054;-81
2021/07/16 01:48:08;;;;;;;4.72;1.55;;;16.70;99.90;;;;;;4987058;28;20051;-80
2021/07/16 01:50:37;;;;;;;3.50;1.40;;;16.70;99.90;;;;;;4983918;28;20565;-80
2021/07/16 01:53:04;;;;;;;3.00;1.30;;;16.70;99.90;;;;;;4983584;28;20054;-80
2021/07/16 01:55:34;;;;;;;3.67;1.50;;;16.70;99.90;;;;;;4988825;28;20150;-80
2021/07/16 01:58:07;;;;;;;4.35;1.80;;;16.70;99.90;;;;;;4986985;28;20145;-80
2021/07/16 02:00:37;;;;;;;5.38;1.52;;;16.70;99.90;;;;;;4991733;28;20129;-80
2021/07/16 02:03:07;;;;;;;4.50;1.90;;;16.70;99.90;;;;;;4985188;28;20129;-80
2021/07/16 02:05:35;;;;;;;6.35;2.10;;;16.80;99.90;;;;;;4977725;28;20043;-79
2021/07/16 02:08:07;;;;;;;3.75;2.00;;;16.80;99.90;;;;;;4983037;28;20050;-79
2021/07/16 02:10:36;;;;;;;4.45;1.80;;;16.70;99.90;;;;;;4989816;28;20043;-78
2021/07/16 02:13:05;;;;;;;6.78;2.35;;;16.80;99.90;;;;;;4983316;28;20567;-80
2021/07/16 02:15:36;;;;;;;3.50;1.85;;;16.70;99.90;;;;;;4981873;28;20125;-80
2021/07/16 02:18:04;;;;;;;3.55;2.10;;;16.70;99.90;;;;;;4983602;28;20134;-80
2021/07/16 02:20:33;;;;;;;3.75;1.70;;;16.70;99.90;;;;;;4983720;28;20122;-80
2021/07/16 02:23:05;;;;;;;5.50;1.50;;;16.70;99.90;;;;;;4987968;28;20081;-78
2021/07/16 02:25:32;;;;;;;2.97;1.50;;;16.70;99.90;;;;;;4986641;28;20129;-78
2021/07/16 02:28:05;;;;;;;3.45;1.30;;;16.70;99.90;;;;;;4986562;28;20050;-81
2021/07/16 02:30:34;;;;;;;2.95;1.30;;;16.70;99.90;;;;;;4979316;28;20072;-81
2021/07/16 02:33:03;;;;;;;2.28;1.10;;;16.70;99.90;;;;;;4985961;28;20081;-80
2021/07/16 02:35:32;;;;;;;4.28;1.30;;;16.80;99.90;;;;;;4986386;28;20122;-80
2021/07/16 02:38:00;;;;;;;4.60;1.67;;;16.80;99.90;;;;;;4982388;28;20125;-80
2021/07/16 02:40:28;;;;;;;2.67;1.35;;;16.80;99.90;;;;;;4984715;28;20047;-80
2021/07/16 02:42:55;;;;;;;3.33;1.45;;;16.80;99.90;;;;;;4982944;28;20047;-80
2021/07/16 02:45:24;;;;;;;4.13;1.83;;;16.80;99.90;;;;;;4983329;28;20192;-79
2021/07/16 02:47:53;;;;;;;4.03;1.73;;;16.90;99.90;;;;;;4983051;28;20105;-80
2021/07/16 02:50:24;;;;;;;3.10;1.50;;;16.90;99.90;;;;;;4985156;28;20046;-79
2021/07/16 02:52:51;;;;;;;3.88;1.35;;;16.80;99.90;;;;;;4988358;28;20423;-80
2021/07/16 02:55:19;;;;;;;3.13;1.60;;;16.90;99.90;;;;;;4978619;28;20066;-81
2021/07/16 02:57:47;;;;;;;2.80;1.42;;;16.90;99.90;;;;;;4986424;28;20133;-79
2021/07/16 03:00:17;;;;;;;2.90;1.70;;;16.90;99.90;;;;;;4985490;28;20050;-80
2021/07/16 03:02:46;;;;;;;5.18;2.00;;;17.00;99.90;;;;;;4983384;28;20054;-80
2021/07/16 03:05:17;;;;;;;4.07;2.00;;;17.00;99.90;;;;;;4980650;28;20542;-80
2021/07/16 03:07:44;;;;;;;4.97;2.10;;;17.00;99.90;;;;;;4978493;28;20129;-81
2021/07/16 03:10:16;;;;;;;3.88;2.00;;;17.00;99.90;;;;;;4980276;28;20469;-81
2021/07/16 03:12:44;;;;;;;3.47;1.92;;;17.00;99.90;;;;;;4982528;28;21008;-81
2021/07/16 03:15:14;;;;;;;3.97;1.80;;;17.00;99.90;;;;;;4981375;28;20058;-81
2021/07/16 03:17:41;;;;;;;5.93;2.20;;;17.00;99.90;;;;;;4979348;28;20504;-77
2021/07/16 03:20:11;;;;;;;4.15;2.30;;;16.90;99.90;;;;;;4978736;28;20070;-80
2021/07/16 03:22:39;;;;;;;4.25;2.03;;;16.90;99.90;;;;;;4979173;28;20125;-79
2021/07/16 03:25:12;;;;;;;3.00;1.50;;;16.90;99.90;;;;;;4982180;28;20134;-78
2021/07/16 03:27:40;;;;;;;3.67;1.50;;;16.90;99.90;;;;;;4978878;28;20061;-78
2021/07/16 03:30:10;;;;;;;3.40;1.73;;;16.90;99.90;;;;;;4979073;28;20049;-80
2021/07/16 03:32:38;;;;;;;4.20;1.63;;;17.00;99.90;;;;;;4982079;28;20824;-79
2021/07/16 03:35:06;;;;;;;3.90;2.10;;;17.00;99.90;;;;;;4980277;28;20137;-80
2021/07/16 03:37:34;;;;;;;4.93;2.10;;;17.00;99.90;;;;;;4973967;28;20373;-81
2021/07/16 03:40:03;;;;;;;5.53;2.22;;;17.10;99.90;;;;;;4974494;28;20162;-80
2021/07/16 03:42:30;;;;;;;4.55;2.30;;;17.10;99.90;;;;;;4980098;28;20054;-78
2021/07/16 03:44:57;;;;;;;6.38;2.08;;;17.10;99.90;;;;;;4977497;28;20059;-78
2021/07/16 03:47:24;;;;;;;4.32;2.05;;;17.10;99.90;;;;;;4980564;28;20503;-79
2021/07/16 03:49:51;;;;;;;3.75;2.00;;;17.10;99.90;;;;;;4976772;28;20145;-79
2021/07/16 03:52:18;;;;;;;4.50;1.90;;;17.10;99.90;;;;;;4980403;28;20500;-78
2021/07/16 03:54:45;;;;;;;5.25;2.30;;;17.20;99.90;;;;;;4981942;28;20045;-78
2021/07/16 03:57:14;;;;;;;4.63;2.28;;;17.20;99.90;;;;;;4980190;28;20519;-78
2021/07/16 03:59:41;;;;;;;4.57;2.45;;;17.20;99.90;;;;;;4978717;28;20458;-78
2021/07/16 04:02:08;;;;;;;7.35;2.78;;;17.20;99.90;;;;;;4981046;28;20075;-78
2021/07/16 04:04:35;;;;;;;6.18;2.70;;;17.20;99.90;;;;;;4981848;28;20499;-77
2021/07/16 04:07:05;;;;;;;5.18;2.30;;;17.20;99.90;;;;;;4981760;28;20469;-79
2021/07/16 04:09:32;;;;;;;4.43;2.13;;;17.10;99.90;;;;;;4981675;28;20061;-80
2021/07/16 04:12:09;;;;;;;5.20;2.38;;;17.10;99.90;;;;;;4984879;28;20050;-79
2021/07/16 04:14:41;;;;;;;6.05;2.80;;;17.10;99.90;;;;;;4978410;28;20101;-78
2021/07/16 04:17:10;;;;;;;4.10;2.47;;;17.10;99.90;;;;;;4983670;28;20595;-78
2021/07/16 04:19:38;;;;;;;4.75;2.40;;;17.10;99.90;;;;;;4982914;28;20382;-78
2021/07/16 04:22:06;;;;;;;5.50;2.33;;;17.10;99.90;;;;;;4984216;28;20403;-77
2021/07/16 04:24:35;;;;;;;4.68;2.47;;;17.10;99.90;;;;;;4990711;28;20133;-78
2021/07/16 04:27:02;;;;;;;3.63;2.03;;;17.10;99.90;;;;;;4973736;28;20404;-78
2021/07/16 04:29:29;;;;;;;6.18;2.60;;;17.10;99.90;;;;;;4985138;28;20050;-78
2021/07/16 04:31:59;;;;;;;5.00;2.28;;;17.10;99.90;;;;;;4993158;28;20242;-78
2021/07/16 04:34:26;;;;;;;7.57;2.67;;;17.10;99.90;;;;;;4993100;28;20046;-78
2021/07/16 04:36:53;;;;;;;4.18;2.60;;;17.20;99.90;;;;;;4991443;28;20491;-77
2021/07/16 04:39:20;;;;;;;5.80;2.60;;;17.20;99.90;;;;;;4993266;28;20057;-78
2021/07/16 04:41:47;;;;;;;5.85;2.45;;;17.10;99.90;;;;;;4993093;28;20473;-77
2021/07/16 04:44:14;;;;;;;4.40;2.20;;;17.10;99.90;;;;;;4989732;28;20133;-78
2021/07/16 04:46:41;;;;;;;4.53;2.25;;;17.10;99.90;;;;;;4973820;28;20145;-77
2021/07/16 04:49:09;;;;;;;6.00;2.60;;;17.20;99.90;;;;;;4973548;28;20065;-78
2021/07/16 04:51:37;;;;;;;5.25;2.80;;;17.20;99.90;;;;;;4973646;28;20059;-79
2021/07/16 04:54:07;;;;;;;4.43;2.60;;;17.20;99.90;;;;;;4976001;28;20049;-77
2021/07/16 04:56:34;;;;;;;4.97;2.10;;;17.20;99.90;;;;;;4992495;28;20052;-78
2021/07/16 04:59:02;;;;;;;4.00;2.40;;;17.20;99.90;;;;;;4993189;28;20105;-77
2021/07/16 05:01:30;;;;;;;5.57;2.70;;;17.20;99.90;;;;;;4992851;28;20042;-78
2021/07/16 05:03:57;;;;;;;4.03;2.42;;;17.20;99.90;;;;;;4977243;28;20093;-78
2021/07/16 05:06:25;;;;;;;5.32;2.60;;;17.20;99.90;;;;;;4976985;28;20580;-76
2021/07/16 05:08:53;;;;;;;5.65;2.67;;;17.20;99.90;;;;;;4976856;28;20059;-78
2021/07/16 05:11:21;;;;;;;6.28;3.35;;;17.20;99.90;;;;;;4977159;28;20169;-77
2021/07/16 05:13:49;;;;;;;5.32;2.80;;;17.20;99.90;;;;;;4988450;28;20084;-78
2021/07/16 05:16:18;;;;;;;7.20;3.50;;;17.20;99.90;;;;;;4996234;28;20084;-77
2021/07/16 05:18:45;;;;;;;5.20;2.80;;;17.20;99.90;;;;;;4996402;28;20047;-77
2021/07/16 05:21:14;;;;;;;5.97;2.90;;;17.10;99.90;;;;;;4995728;28;20060;-77
2021/07/16 05:23:43;;;;;;;8.30;3.30;;;17.10;99.90;;;;;;4996163;28;20051;-76
2021/07/16 05:26:11;;;;;;;4.97;2.90;;;17.00;99.90;;;;;;4995929;28;20070;-78
2021/07/16 05:28:39;;;;;;;4.43;2.80;;;17.00;99.90;;;;;;4994655;28;20133;-77
2021/07/16 05:31:06;;;;;;;6.82;3.00;;;17.10;99.90;;;;;;4995908;28;20133;-78
2021/07/16 05:33:33;;;;;;;6.80;3.30;;;17.10;99.90;;;;;;4995740;28;20046;-77
2021/07/16 05:36:01;;;;;;;4.30;2.88;;;17.10;99.90;;;;;;4995528;28;20126;-78
2021/07/16 05:38:28;;;;;;;5.95;3.03;;;17.10;99.90;;;;;;4995531;28;20055;-78
2021/07/16 05:40:56;;;;;;;5.63;3.00;;;17.10;99.90;;;;;;4978835;28;20046;-78
2021/07/16 05:43:23;;;;;;;5.57;3.00;;;17.10;99.90;;;;;;4995518;28;20061;-78
2021/07/16 05:45:50;;;;;;;6.28;3.10;;;17.10;99.90;;;;;;4980868;28;20138;-77
2021/07/16 05:48:18;;;;;;;5.78;3.50;;;17.20;99.90;;;;;;4994901;28;20132;-77
2021/07/16 05:50:47;;;;;;;6.15;3.72;;;17.20;99.90;;;;;;4995344;28;20141;-77
2021/07/16 05:53:15;;;;;;;5.97;3.40;;;17.20;99.90;;;;;;4995953;28;20125;-78
2021/07/16 05:55:43;;;;;;;5.43;3.80;;;17.20;99.90;;;;;;4995493;28;20129;-78
2021/07/16 05:58:11;;;;;;;7.90;4.35;;;17.20;99.90;;;;;;4983582;28;20053;-77
2021/07/16 06:00:39;;;;;;;6.07;3.78;;;17.10;99.90;;;;;;4976130;28;20126;-78
2021/07/16 06:03:06;;;;;;;6.10;3.35;;;17.10;99.90;;;;;;4992004;28;20133;-78
2021/07/16 06:05:33;;;;;;;5.55;3.22;;;17.20;99.90;;;;;;4976109;28;20052;-78
2021/07/16 06:08:01;;;;;;;7.30;4.00;;;17.20;99.90;;;;;;4976027;28;20134;-78
2021/07/16 06:10:28;;;;;;;7.45;4.40;;;17.20;99.90;;;;;;4975856;28;20054;-78
2021/07/16 06:12:56;;;;;;;6.05;3.85;;;17.20;99.90;;;;;;4976093;28;20133;-77
2021/07/16 06:15:26;;;;;;;6.90;4.85;;;17.10;99.90;;;;;;4975874;28;20372;-79
2021/07/16 06:17:53;;;;;;;6.32;3.83;;;17.10;99.90;;;;;;4985040;28;20054;-78
2021/07/16 06:20:20;;;;;;;6.78;4.18;;;17.10;99.90;;;;;;4978138;28;20134;-78
2021/07/16 06:22:47;;;;;;;7.72;5.35;;;17.10;99.90;;;;;;4975745;28;20485;-77
2021/07/16 06:25:17;;;;;;;6.68;4.38;;;17.10;99.90;;;;;;4975659;28;20046;-78
2021/07/16 06:27:45;;;;;;;6.07;4.10;;;17.10;99.90;;;;;;4975201;28;20393;-78
2021/07/16 06:30:14;;;;;;;5.90;3.67;;;17.10;99.90;;;;;;4985622;28;20502;-80
2021/07/16 06:32:42;;;;;;;6.22;4.10;;;17.10;99.90;;;;;;4994719;28;20047;-78
2021/07/16 06:35:11;;;;;;;6.50;4.60;;;17.10;99.90;;;;;;4993420;28;20046;-78
2021/07/16 06:37:38;;;;;;;8.10;4.68;;;17.20;99.90;;;;;;4980237;28;20050;-78
2021/07/16 06:40:08;;;;;;;7.60;4.68;;;17.20;99.90;;;;;;4974343;28;20071;-78
2021/07/16 06:42:35;;;;;;;8.13;4.75;;;17.20;99.90;;;;;;4975342;28;20078;-77
2021/07/16 06:45:03;;;;;;;8.23;5.55;;;17.20;99.90;;;;;;4936675;29;20090;-78
2021/07/16 06:47:30;;;;;;;6.70;4.30;;;17.30;99.90;;;;;;4953997;29;20051;-78
2021/07/16 06:49:59;;;;;;;9.00;5.20;;;17.30;99.90;;;;;;4955702;28;20138;-78
2021/07/16 06:52:26;;;;;;;7.05;4.90;;;17.40;99.90;;;;;;4955754;29;20130;-79
2021/07/16 06:54:53;;;;;;;6.53;4.72;;;17.40;99.90;;;;;;4955598;29;20142;-78
2021/07/16 06:57:20;;;;;;;6.55;4.40;;;17.50;99.90;;;;;;4955364;29;20051;-77
2021/07/16 06:59:47;;;;;;;8.02;5.28;;;17.50;99.90;;;;;;4954579;28;20050;-78
2021/07/16 07:02:14;;;;;;;7.15;4.65;;;17.60;99.90;;;;;;4936879;29;20051;-78
2021/07/16 07:04:41;;;;;;;5.85;4.18;;;17.60;99.90;;;;;;4950281;29;20472;-78
2021/07/16 07:07:09;;;;;;;7.60;4.95;;;17.70;99.90;;;;;;4954421;29;20409;-78
2021/07/16 07:09:36;;;;;;;8.10;5.60;;;17.70;99.90;;;;;;4954854;29;20442;-79
2021/07/16 07:12:04;;;;;;;6.97;5.20;;;17.80;99.90;;;;;;4953994;29;20130;-76
2021/07/16 07:14:31;;;;;;;7.13;4.75;;;17.80;99.90;;;;;;4955227;28;20134;-77
2021/07/16 07:16:58;;;;;;;6.95;4.82;;;17.80;99.90;;;;;;4955453;29;20135;-78
2021/07/16 07:19:25;;;;;;;7.93;5.43;;;17.90;99.90;;;;;;4955150;29;20043;-77
2021/07/16 07:21:52;;;;;;;8.73;5.95;;;17.90;99.90;;;;;;4955360;29;20592;-78
2021/07/16 07:24:20;;;;;;;7.45;5.78;;;18.00;99.90;;;;;;4945189;28;20138;-78
2021/07/16 07:26:47;;;;;;;8.32;5.15;;;18.10;99.90;;;;;;4936149;29;20134;-78
2021/07/16 07:29:14;;;;;;;6.78;4.90;;;18.20;99.90;;;;;;4935851;29;20063;-78
2021/07/16 07:31:41;;;;;;;7.05;5.18;;;18.40;99.90;;;;;;4936075;29;20048;-77
2021/07/16 07:34:11;;;;;;;7.80;4.95;;;18.40;99.90;;;;;;4955233;29;20146;-78
2021/07/16 07:36:38;;;;;;;6.20;4.43;;;18.60;99.90;;;;;;4954975;28;20058;-78
2021/07/16 07:39:05;;;;;;;8.70;5.10;;;18.70;99.90;;;;;;4955119;28;20122;-78
2021/07/16 07:41:34;;;;;;;6.65;5.15;;;18.90;99.90;;;;;;4954980;28;20122;-79
2021/07/16 07:44:01;;;;;;;6.93;4.93;;;19.00;99.90;;;;;;4977007;28;20552;-78
2021/07/16 07:46:28;;;;;;;6.97;4.70;;;19.10;99.90;;;;;;4974837;28;20046;-78
2021/07/16 07:48:55;;;;;;;6.38;3.85;;;19.20;99.90;;;;;;4974178;28;20415;-78
2021/07/16 07:51:22;;;;;;;5.70;4.07;;;19.30;99.90;;;;;;4980727;28;20042;-77
2021/07/16 07:53:49;;;;;;;5.10;3.80;;;19.50;99.90;;;;;;4992361;28;20130;-76
2021/07/16 07:56:16;;;;;;;6.13;4.30;;;19.50;99.90;;;;;;4993857;28;20133;-79
2021/07/16 07:58:44;;;;;;;7.10;4.30;;;19.60;99.90;;;;;;4992926;28;20046;-77
2021/07/16 08:01:11;;;;;;;5.70;4.20;;;19.70;99.90;;;;;;4992445;28;20481;-78
2021/07/16 08:03:38;;;;;;;6.43;4.25;;;19.80;99.90;;;;;;4993085;28;20129;-78
2021/07/16 08:06:06;;;;;;;6.63;4.60;;;19.80;99.90;;;;;;4993775;28;20129;-78
2021/07/16 08:08:33;;;;;;;4.90;3.72;;;19.90;99.90;;;;;;4993064;28;20121;-77
2021/07/16 08:11:00;;;;;;;5.15;3.65;;;19.90;99.90;;;;;;4974709;28;20051;-77
2021/07/16 08:13:28;;;;;;;6.55;4.05;;;19.90;99.90;;;;;;4975105;28;20404;-78
2021/07/16 08:15:57;;;;;;;5.90;3.80;;;19.80;99.90;;;;;;4974157;28;20057;-78
2021/07/16 08:18:24;;;;;;;5.88;4.15;;;19.80;99.90;;;;;;4974114;28;20047;-78
2021/07/16 08:20:51;;;;;;;7.53;3.97;;;19.80;99.90;;;;;;4974159;28;20081;-78
2021/07/16 08:23:18;;;;;;;7.78;4.35;;;19.80;99.90;;;;;;4974084;28;20189;-77
2021/07/16 08:25:45;;;;;;;5.65;4.22;;;19.80;99.90;;;;;;4974083;28;20057;-77
2021/07/16 08:28:12;;;;;;;8.00;4.22;;;19.80;99.90;;;;;;4985613;28;20549;-79
2021/07/16 08:30:40;;;;;;;5.30;3.58;;;19.80;99.90;;;;;;4973730;28;20134;-78
2021/07/16 08:33:08;;;;;;;4.57;3.20;;;19.80;99.90;;;;;;4973833;28;20055;-79
2021/07/16 08:35:35;;;;;;;5.45;3.72;;;19.80;99.90;;;;;;4976241;28;20133;-80
2021/07/16 08:38:05;;;;;;;6.13;4.10;;;19.80;99.90;;;;;;4995801;28;20480;-78
2021/07/16 08:40:32;;;;;;;4.20;3.10;;;19.80;99.90;;;;;;4996654;28;20050;-79
2021/07/16 08:43:00;;;;;;;5.95;3.60;;;19.80;99.90;;;;;;4997204;28;20046;-78
2021/07/16 08:45:27;;;;;;;4.75;3.53;;;19.80;99.90;;;;;;4996266;28;20519;-78
2021/07/16 08:47:55;;;;;;;5.57;3.45;;;19.80;99.90;;;;;;4996894;28;20459;-78
2021/07/16 08:50:25;;;;;;;5.45;3.50;;;19.80;99.90;;;;;;4996575;28;20054;-78
2021/07/16 08:52:59;;;;;;;4.70;3.42;;;19.90;99.90;;;;;;4997030;28;20218;-77
2021/07/16 08:55:27;;;;;;;5.25;3.85;;;20.00;99.90;;;;;;4996325;28;20105;-78
2021/07/16 08:57:54;;;;;;;5.43;3.80;;;20.00;99.90;;;;;;4987580;28;20134;-78
2021/07/16 09:00:21;;;;;;;5.95;3.67;;;20.00;99.90;;;;;;4978277;28;20049;-77
2021/07/16 09:02:54;;;;;;;5.57;3.38;;;20.00;99.90;;;;;;4978415;28;20145;-77
2021/07/16 09:05:35;;;;;;;5.25;3.20;;;20.20;99.90;;;;;;4980836;28;20050;-77
2021/07/16 09:08:03;;;;;;;5.05;3.15;;;20.30;99.90;;;;;;4978086;28;20050;-77
2021/07/16 09:10:31;;;;;;;4.88;3.20;;;20.50;99.90;;;;;;4987757;28;20564;-77
2021/07/16 09:13:00;;;;;;;5.03;3.00;;;20.60;99.90;;;;;;4994655;28;20053;-78
2021/07/16 09:15:29;;;;;;;4.97;3.50;;;20.80;99.90;;;;;;4996241;28;20105;-76
2021/07/16 09:18:18;;;;;;;6.25;4.30;;;20.90;99.90;;;;;;4996364;28;20057;-78
2021/07/16 09:20:46;;;;;;;6.68;4.00;;;21.00;99.90;;;;;;4982850;28;20082;-78
2021/07/16 09:23:16;;;;;;;6.15;3.80;;;21.00;99.90;;;;;;4990678;28;20088;-79
2021/07/16 09:25:44;;;;;;;5.45;3.55;;;21.00;99.90;;;;;;4982095;28;20457;-78
2021/07/16 09:28:25;;;;;;;5.10;3.10;;;21.00;99.90;;;;;;4991633;28;20560;-79
2021/07/16 09:30:53;;;;;;;4.35;2.47;;;21.00;99.90;;;;;;4976469;28;20134;-76
2021/07/16 09:33:20;;;;;;;3.65;2.10;;;21.00;99.90;;;;;;4976481;28;20548;-77
2021/07/16 09:35:51;;;;;;;4.30;2.10;;;21.10;99.90;;;;;;4977002;28;20560;-78
2021/07/16 09:38:19;;;;;;;3.45;2.17;;;21.10;99.90;;;;;;4993288;28;20157;-78
2021/07/16 09:40:52;;;;;;;3.60;2.10;;;21.10;99.70;;;;;;4995408;28;20078;-77
2021/07/16 09:43:23;;;;;;;4.10;2.10;;;21.10;99.90;;;;;;4992727;28;20113;-77
2021/07/16 09:46:00;;;;;;;3.92;2.08;;;21.10;99.90;;;;;;4986539;28;20046;-77
2021/07/16 09:48:33;;;;;;;3.13;1.77;;;21.10;99.90;;;;;;4981580;28;20050;-81
2021/07/16 09:51:18;;;;;;;3.05;2.08;;;21.10;99.90;;;;;;4983065;28;20078;-80
2021/07/16 09:53:48;;;;;;;4.32;2.20;;;21.20;99.80;;;;;;4983792;28;20121;-78
2021/07/16 09:56:19;;;;;;;3.08;1.75;;;21.20;99.60;;;;;;4984344;28;20137;-79
2021/07/16 09:58:48;;;;;;;3.38;2.10;;;21.20;99.60;;;;;;4979372;28;20146;-83
2021/07/16 10:01:16;;;;;;;4.38;2.90;;;21.20;99.60;;;;;;4989175;28;20062;-82
2021/07/16 10:03:44;;;;;;;5.00;2.95;;;21.30;99.40;;;;;;4995088;28;20126;-82
2021/07/16 10:06:16;;;;;;;4.70;2.50;;;21.30;99.50;;;;;;4994990;28;20142;-81
2021/07/16 10:08:43;;;;;;;5.38;3.20;;;21.30;99.70;;;;;;4994479;28;20054;-82
2021/07/16 10:11:12;;;;;;;5.72;3.30;;;21.40;99.10;;;;;;4994956;28;20056;-82
2021/07/16 10:13:41;;;;;;;4.50;2.60;;;21.50;98.90;;;;;;4994784;28;20058;-81
2021/07/16 10:16:08;;;;;;;4.25;2.50;;;21.60;98.80;;;;;;4991634;28;20053;-80
2021/07/16 10:18:36;;;;;;;4.50;2.80;;;21.70;99.10;;;;;;4991020;28;20137;-80
2021/07/16 10:21:03;;;;;;;4.55;2.90;;;21.80;98.70;;;;;;4994667;28;20133;-80
2021/07/16 10:23:34;;;;;;;4.28;2.95;;;21.90;97.40;;;;;;4992797;28;20070;-80
2021/07/16 10:26:03;;;;;;;5.28;3.20;;;21.90;97.40;;;;;;4986188;28;20082;-79
2021/07/16 10:28:40;;;;;;;4.55;2.90;;;21.80;97.10;;;;;;4975285;28;20138;-80
2021/07/16 10:31:39;;;;;;;4.80;2.80;;;21.70;97.50;;;;;;4975743;28;20109;-81
2021/07/16 10:34:31;;;;;;;4.40;2.30;;;21.70;97.30;;;;;;4975058;28;20129;-81
2021/07/16 10:36:59;;;;;;;4.15;2.60;;;21.60;97.60;;;;;;4975014;28;20098;-80
2021/07/16 10:39:47;;;;;;;5.55;2.78;;;21.50;97.40;;;;;;4987777;28;20058;-81
2021/07/16 10:42:47;;;;;;;3.95;2.35;;;21.40;97.30;;;;;;4975267;28;20054;-82
2021/07/16 10:45:15;;;;;;;3.35;2.30;;;21.40;97.40;;;;;;4934608;29;20569;-80
2021/07/16 10:47:47;;;;;;;3.80;2.20;;;21.30;97.50;;;;;;4966191;28;20493;-80
2021/07/16 10:50:17;;;;;;;4.60;2.88;;;21.40;97.60;;;;;;4988719;28;20486;-82
2021/07/16 10:52:49;;;;;;;4.82;2.97;;;21.30;97.20;;;;;;4994114;28;20065;-81
2021/07/16 10:55:20;;;;;;;3.92;2.40;;;21.40;97.30;;;;;;4991803;28;20138;-82
2021/07/16 10:57:49;;;;;;;3.90;2.28;;;21.50;97.60;;;;;;4983536;28;20138;-82
2021/07/16 11:00:49;;;;;;;5.15;2.50;;;21.60;97.30;;;;;;4974683;28;20061;-81
2021/07/16 11:03:17;;;;;;;5.15;2.60;;;21.80;97.10;;;;;;4994100;28;20399;-82
2021/07/16 11:05:55;;;;;;;3.30;2.10;;;21.90;96.10;;;;;;4993825;28;20142;-80
2021/07/16 11:08:54;;;;;;;4.18;2.20;;;21.90;96.40;;;;;;4978894;28;20125;-80
2021/07/16 11:11:38;;;;;;;4.68;2.58;;;22.00;95.90;;;;;;4993735;28;20097;-82
2021/07/16 11:14:06;;;;;;;;;;;22.10;96.30;;;;;;4993988;28;20050;-81
2021/07/16 11:16:43;;;;;;;5.50;2.58;;;22.10;96.40;;;;;;4993670;28;20384;-81
2021/07/16 11:19:26;;;;;;;3.75;2.20;;;22.20;95.70;;;;;;4992382;28;20057;-80
2021/07/16 11:22:05;;;;;;;3.58;2.03;;;22.10;95.60;;;;;;4974390;28;20137;-81
2021/07/16 11:24:34;;;;;;;3.67;2.05;;;22.10;96.00;;;;;;4974206;28;20054;-80
2021/07/16 11:27:10;;;;;;;4.32;2.20;;;22.10;96.00;;;;;;4974691;28;20053;-80
2021/07/16 11:29:41;;;;;;;3.40;2.00;;;22.10;95.70;;;;;;4974347;28;20085;-80
2021/07/16 11:32:20;;;;;;;3.60;1.70;;;22.20;95.90;;;;;;4974111;28;20129;-81
2021/07/16 11:34:51;;;;;;;3.50;1.90;;;22.20;95.60;;;;;;4975701;28;20051;-81
2021/07/16 11:37:30;;;;;;;3.22;1.77;;;22.20;95.40;;;;;;4989489;28;20140;-81
2021/07/16 11:40:03;;;;;;;3.38;2.00;;;22.30;94.80;;;;;;4982248;28;20138;-81
2021/07/16 11:42:33;;;;;;;3.20;1.90;;;22.30;95.00;;;;;;4982415;28;20457;-77
2021/07/16 11:45:01;;;;;;;3.10;1.83;;;22.30;95.00;;;;;;4977290;28;20105;-81
2021/07/16 11:47:31;;;;;;;3.30;2.00;;;22.40;95.00;;;;;;4989203;28;20088;-81
2021/07/16 11:50:01;;;;;;;3.22;1.90;;;22.40;94.80;;;;;;4980664;28;20497;-81
2021/07/16 11:52:31;;;;;;;3.53;1.77;;;22.40;94.60;;;;;;4993486;28;20509;-80
2021/07/16 11:55:12;;;;;;;3.00;1.90;;;22.40;94.90;;;;;;4983647;28;20142;-81
2021/07/16 11:57:55;;;;;;;3.30;1.95;;;22.50;95.20;;;;;;4980291;28;20347;-88
2021/07/16 12:00:28;;;;;;;4.72;2.00;;;22.60;95.50;;;;;;4984354;28;20141;-77
2021/07/16 12:03:06;;;;;;;3.42;2.13;;;22.70;95.40;;;;;;4981116;28;20138;-78
2021/07/16 12:05:45;;;;;;;3.00;1.80;;;22.80;94.90;;;;;;4984615;28;20496;-79
2021/07/16 12:08:12;;;;;;;3.15;1.70;;;22.90;94.70;;;;;;4976978;28;20405;-78
2021/07/16 12:10:40;;;;;;;3.03;1.50;;;22.90;94.80;;;;;;4982229;28;20140;-78
2021/07/16 12:13:08;;;;;;;3.08;1.95;;;22.90;95.00;;;;;;4984682;28;20129;-79
2021/07/16 12:15:35;;;;;;;3.53;1.77;;;22.90;95.20;;;;;;4985430;28;20042;-77
2021/07/16 12:18:03;;;;;;;3.53;1.60;;;22.90;95.00;;;;;;4985210;28;20050;-78
2021/07/16 12:20:33;;;;;;;3.03;1.77;;;22.80;95.30;;;;;;4984898;28;20130;-80
2021/07/16 12:23:07;;;;;;;2.42;1.42;;;22.90;95.30;;;;;;4981236;28;20082;-79
2021/07/16 12:25:35;;;;;;;3.33;1.92;;;22.80;95.20;;;;;;4983103;28;20038;-79
2021/07/16 12:28:10;;;;;;;3.00;1.90;;;22.80;95.60;;;;;;4985912;28;20460;-79
2021/07/16 12:30:39;;;;;;;3.45;2.25;;;22.70;96.10;;;;;;4979428;28;20057;-78
2021/07/16 12:33:08;;;;;;;3.92;2.20;;;22.60;96.40;;;;;;4984793;28;20129;-79
2021/07/16 12:35:40;;;;;;;3.85;2.03;;;22.50;96.90;;;;;;4985677;28;20092;-79
2021/07/16 12:38:13;;;;;;;3.50;2.00;;;22.40;97.20;;;;;;4983864;28;20164;-78
2021/07/16 12:40:41;;;;;;;3.28;1.80;;;22.40;97.50;;;;;;4993630;28;20061;-79
2021/07/16 12:43:12;;;;;;;2.97;1.77;;;22.30;97.80;;;;;;4990432;28;20093;-78
2021/07/16 12:45:43;;;;;;;3.20;2.00;;;22.20;98.10;;;;;;4976207;28;20517;-77
2021/07/16 12:48:26;;;;;;;3.25;1.90;;;22.20;98.00;;;;;;4981385;28;20047;-78
2021/07/16 12:50:55;;;;;;;3.88;1.90;;;22.20;97.80;;;;;;4974497;28;20472;-79
2021/07/16 12:53:32;;;;;;;2.65;1.55;;;22.20;98.00;;;;;;4988848;28;20385;-78
2021/07/16 12:56:00;;;;;;;2.65;1.50;;;22.30;97.70;;;;;;4985291;28;20054;-78
2021/07/16 12:58:35;;;;;;;3.67;1.50;;;22.40;97.20;;;;;;4985551;28;20139;-78
2021/07/16 13:01:02;;;;;;;2.78;1.63;;;22.60;97.40;;;;;;4989035;28;20545;-77